Time;durP1;ratioP1;P1;durP2;ratioP2;P2;SDS_P1;SDS_P2;PMS_P1;PMS_P2;Temp;Humidity;BMP_temperature;BMP_pressure;BME280_temperature;BME280_humidity;BME280_pressure;Samples;Min_cycle;Max_cycle;Signal;HPM_P1;HPM_P2
2021/04/20 00:01:42;;;;;;;41.38;26.45;;;;;;;8.59;75.35;95354.06;4995110;28;20037;-80
2021/04/20 00:04:07;;;;;;;38.90;25.63;;;;;;;8.62;74.86;95363.34;4993508;28;20038;-79
2021/04/20 00:06:34;;;;;;;43.92;28.25;;;;;;;8.60;75.17;95362.84;4993150;28;20480;-79
2021/04/20 00:09:00;;;;;;;47.83;28.08;;;;;;;8.61;74.97;95356.47;4992862;28;20604;-79
2021/04/20 00:11:26;;;;;;;37.45;26.77;;;;;;;8.67;75.01;95368.56;4992886;28;20030;-78
2021/04/20 00:13:51;;;;;;;37.45;25.52;;;;;;;8.68;75.09;95362.19;4995158;28;20704;-78
2021/04/20 00:16:17;;;;;;;37.63;25.33;;;;;;;8.68;75.22;95351.56;4993217;28;20042;-79
2021/04/20 00:18:42;;;;;;;34.05;23.83;;;;;;;8.51;74.57;95341.47;4992387;28;20058;-78
2021/04/20 00:21:08;;;;;;;42.30;27.55;;;;;;;8.49;74.80;95345.47;4992468;28;20031;-79
2021/04/20 00:23:33;;;;;;;35.40;25.77;;;;;;;8.42;75.13;95353.00;4992981;28;20117;-79
2021/04/20 00:25:58;;;;;;;38.88;27.27;;;;;;;8.38;75.17;95342.16;4994821;28;20384;-79
2021/04/20 00:28:25;;;;;;;46.55;29.88;;;;;;;8.04;75.54;95281.38;4992423;28;20042;-78
2021/04/20 00:30:52;;;;;;;53.75;31.38;;;;;;;8.61;75.37;95353.81;4992628;28;20121;-77
2021/04/20 00:33:18;;;;;;;43.53;29.02;;;;;;;8.58;75.23;95339.25;4990954;28;20035;-79
2021/04/20 00:35:44;;;;;;;38.05;27.63;;;;;;;8.49;74.60;95350.75;4992371;28;20515;-78
2021/04/20 00:38:10;;;;;;;47.05;29.02;;;;;;;8.60;74.98;95352.22;4991322;28;20030;-79
2021/04/20 00:40:36;;;;;;;41.55;29.08;;;;;;;8.48;75.08;95343.91;4994219;28;20417;-78
2021/04/20 00:43:02;;;;;;;40.17;27.35;;;;;;;8.16;75.34;95325.97;4992351;28;20042;-78
2021/04/20 00:45:31;;;;;;;39.50;28.25;;;;;;;7.80;77.67;95331.69;4992434;28;20042;-79
2021/04/20 00:47:56;;;;;;;44.42;28.63;;;;;;;8.16;76.85;95324.13;4992462;28;20516;-79
2021/04/20 00:50:25;;;;;;;43.15;28.90;;;;;;;8.27;76.83;95333.50;4992883;28;20072;-78
2021/04/20 00:52:51;;;;;;;45.33;30.50;;;;;;;8.31;76.41;95326.59;4994445;28;20033;-78
2021/04/20 00:55:17;;;;;;;47.75;31.42;;;;;;;8.45;76.37;95341.81;4992494;28;20051;-78
2021/04/20 00:57:42;;;;;;;42.65;28.48;;;;;;;8.49;76.10;95330.34;4991998;28;20092;-78
2021/04/20 01:00:13;;;;;;;43.20;29.42;;;;;;;8.55;75.79;95334.53;4992529;28;20038;-77
2021/04/20 01:02:38;;;;;;;43.90;29.90;;;;;;;8.58;75.88;95330.50;4991987;28;20034;-77
2021/04/20 01:05:10;;;;;;;44.55;29.40;;;;;;;8.64;75.31;95331.22;5009486;28;20026;-79
2021/04/20 01:07:36;;;;;;;43.92;29.77;;;;;;;8.64;75.06;95325.91;4992365;28;20496;-78
2021/04/20 01:10:03;;;;;;;42.35;29.38;;;;;;;8.61;74.39;95337.13;4991936;28;20228;-78
2021/04/20 01:12:30;;;;;;;40.58;29.85;;;;;;;8.62;74.45;95334.16;4991941;28;20089;-78
2021/04/20 01:14:56;;;;;;;42.95;30.35;;;;;;;8.53;75.00;95330.56;5007278;28;20031;-78
2021/04/20 01:17:28;;;;;;;41.45;28.38;;;;;;;8.04;76.71;95329.03;4992300;28;20439;-79
2021/04/20 01:20:05;;;;;;;36.35;27.80;;;;;;;8.01;77.37;95329.59;4994025;28;20391;-78
2021/04/20 01:22:37;;;;;;;39.70;27.88;;;;;;;7.93;77.60;95327.56;4991962;28;20042;-78
2021/04/20 01:25:06;;;;;;;38.50;28.17;;;;;;;7.91;77.42;95335.78;4992366;28;20042;-79
2021/04/20 01:27:31;;;;;;;41.30;27.48;;;;;;;7.62;78.90;95330.53;4991629;28;20053;-79
2021/04/20 01:29:57;;;;;;;37.75;26.50;;;;;;;7.07;81.34;95332.63;5007236;28;20481;-80
2021/04/20 01:32:23;;;;;;;41.72;27.27;;;;;;;7.01;82.44;95334.50;4991448;28;20033;-79
2021/04/20 01:34:49;;;;;;;40.63;28.42;;;;;;;6.90;83.30;95342.78;4993522;28;20603;-80
2021/04/20 01:37:15;;;;;;;41.72;29.35;;;;;;;7.15;82.22;95339.94;4991489;28;20130;-79
2021/04/20 01:39:43;;;;;;;43.22;28.42;;;;;;;7.27;81.60;95332.44;4991334;28;20149;-77
2021/04/20 01:42:09;;;;;;;38.58;27.38;;;;;;;7.09;82.61;95335.75;4991239;28;20039;-77
2021/04/20 01:44:35;;;;;;;40.58;28.60;;;;;;;7.30;81.51;95331.88;4991391;28;20261;-80
2021/04/20 01:47:01;;;;;;;38.42;27.20;;;;;;;6.86;83.66;95321.41;5007170;28;20477;-78
2021/04/20 01:49:26;;;;;;;40.47;27.55;;;;;;;6.75;83.98;95335.72;4990667;28;20045;-79
2021/04/20 01:51:52;;;;;;;41.00;28.55;;;;;;;7.03;83.44;95328.94;4991362;28;20038;-78
2021/04/20 01:54:18;;;;;;;42.95;28.20;;;;;;;6.91;83.70;95323.19;4991781;28;20129;-80
2021/04/20 01:56:46;;;;;;;42.47;28.38;;;;;;;6.62;85.43;95333.72;4991385;28;20134;-79
2021/04/20 01:59:11;;;;;;;41.05;28.55;;;;;;;6.90;84.30;95332.97;5006535;28;20026;-79
2021/04/20 02:01:37;;;;;;;38.53;27.60;;;;;;;6.67;85.62;95339.75;4993221;28;20469;-78
2021/04/20 02:04:02;;;;;;;40.00;28.02;;;;;;;6.64;85.52;95328.94;4991095;28;20027;-78
2021/04/20 02:06:28;;;;;;;41.00;29.67;;;;;;;6.66;85.37;95317.03;4991020;28;20054;-78
2021/04/20 02:08:54;;;;;;;38.38;28.30;;;;;;;6.73;85.54;95330.72;4990835;28;20073;-79
2021/04/20 02:11:21;;;;;;;44.47;29.73;;;;;;;6.82;85.91;95335.44;4991169;28;20073;-79
2021/04/20 02:13:47;;;;;;;43.42;29.60;;;;;;;6.80;85.28;95326.97;4993278;28;20097;-79
2021/04/20 02:16:13;;;;;;;42.97;29.70;;;;;;;6.91;84.48;95317.91;4990941;28;20141;-78
2021/04/20 02:18:43;;;;;;;48.67;31.33;;;;;;;7.04;83.92;95312.78;4990862;28;20604;-80
2021/04/20 02:21:10;;;;;;;47.22;31.15;;;;;;;7.42;82.92;95333.38;4990971;28;20121;-78
2021/04/20 02:23:36;;;;;;;40.03;29.77;;;;;;;7.16;83.27;95332.78;4990758;28;20050;-78
2021/04/20 02:26:14;;;;;;;52.33;31.83;;;;;;;7.48;82.48;95337.56;4992486;28;20477;-80
2021/04/20 02:28:40;;;;;;;44.03;30.23;;;;;;;7.57;81.79;95333.22;4990975;28;20038;-79
2021/04/20 02:31:07;;;;;;;42.97;29.15;;;;;;;7.40;81.58;95331.00;5005603;28;20038;-80
2021/04/20 02:33:33;;;;;;;41.13;29.65;;;;;;;7.09;83.57;95338.41;4989532;28;20046;-78
2021/04/20 02:35:59;;;;;;;44.80;29.90;;;;;;;7.29;83.25;95325.00;4990207;28;20027;-80
2021/04/20 02:38:27;;;;;;;44.83;30.23;;;;;;;7.47;82.25;95336.78;4990171;28;20097;-78
2021/04/20 02:40:54;;;;;;;43.70;30.20;;;;;;;7.42;82.11;95334.19;4992557;28;20035;-79
2021/04/20 02:43:20;;;;;;;46.20;31.02;;;;;;;7.69;81.09;95323.06;4990823;28;20125;-79
2021/04/20 02:45:48;;;;;;;50.30;31.95;;;;;;;7.96;80.95;95321.72;4990985;28;20516;-79
2021/04/20 02:48:13;;;;;;;42.58;30.67;;;;;;;7.84;80.29;95326.63;4990597;28;20162;-78
2021/04/20 02:50:39;;;;;;;46.35;30.17;;;;;;;7.49;81.17;95329.34;4990828;28;20069;-79
2021/04/20 02:53:05;;;;;;;41.42;29.73;;;;;;;7.86;80.49;95332.41;4992518;28;20034;-79
2021/04/20 02:55:31;;;;;;;44.85;29.92;;;;;;;7.61;81.19;95314.94;4990455;28;20046;-79
2021/04/20 02:57:58;;;;;;;45.22;30.05;;;;;;;7.23;81.58;95301.53;4990509;28;20034;-79
2021/04/20 03:00:25;;;;;;;47.95;30.98;;;;;;;7.48;82.21;95327.75;4989849;28;20030;-79
2021/04/20 03:02:56;;;;;;;45.00;31.08;;;;;;;7.72;81.50;95319.84;4989545;28;20042;-79
2021/04/20 03:05:24;;;;;;;43.35;30.38;;;;;;;7.41;81.99;95315.91;5007985;28;20404;-78
2021/04/20 03:07:50;;;;;;;46.10;30.65;;;;;;;7.53;81.63;95311.06;4995590;28;20022;-79
2021/04/20 03:10:17;;;;;;;44.88;31.50;;;;;;;7.97;81.03;95320.63;4993945;28;20049;-78
2021/04/20 03:12:43;;;;;;;48.33;30.95;;;;;;;7.19;81.62;95319.81;4993731;28;20405;-79
2021/04/20 03:15:12;;;;;;;49.38;32.15;;;;;;;7.36;82.05;95321.25;4993921;28;20027;-79
2021/04/20 03:17:41;;;;;;;45.35;31.58;;;;;;;7.54;81.11;95309.97;4993839;28;20050;-78
2021/04/20 03:20:08;;;;;;;46.65;32.05;;;;;;;7.79;80.92;95320.31;4995998;28;20029;-79
2021/04/20 03:22:35;;;;;;;46.92;32.03;;;;;;;7.98;80.00;95315.03;4994187;28;20042;-78
2021/04/20 03:25:06;;;;;;;49.17;32.88;;;;;;;7.75;79.65;95326.44;4993701;28;20034;-78
2021/04/20 03:27:33;;;;;;;50.08;32.78;;;;;;;7.62;80.80;95312.00;4993345;28;20042;-77
2021/04/20 03:29:59;;;;;;;47.95;32.90;;;;;;;7.38;82.43;95319.13;4993826;28;20049;-78
2021/04/20 03:32:25;;;;;;;46.42;32.35;;;;;;;7.54;82.58;95317.91;4993447;28;20465;-80
2021/04/20 03:35:05;;;;;;;50.13;32.95;;;;;;;7.43;81.86;95321.72;4995028;28;20566;-71
2021/04/20 03:37:35;;;;;;;46.92;32.20;;;;;;;7.03;84.09;95316.50;4992633;28;20049;-74
2021/04/20 03:40:04;;;;;;;52.70;33.40;;;;;;;6.84;85.00;95288.34;4992951;28;20054;-81
2021/04/20 03:42:34;;;;;;;46.42;32.75;;;;;;;7.08;84.45;95305.09;4993580;28;20038;-80
2021/04/20 03:45:03;;;;;;;48.97;32.50;;;;;;;6.90;85.73;95305.75;4990918;28;20408;-74
2021/04/20 03:47:39;;;;;;;54.70;34.72;;;;;;;6.99;84.98;95286.38;4992850;28;20111;-86
2021/04/20 03:50:09;;;;;;;48.80;33.28;;;;;;;7.23;84.21;95288.31;4993664;28;20469;-70
2021/04/20 03:52:50;;;;;;;47.05;32.65;;;;;;;7.03;83.64;95291.91;4991764;28;20042;-71
2021/04/20 03:55:18;;;;;;;60.03;36.58;;;;;;;7.25;83.23;95300.16;5006326;28;20042;-72
2021/04/20 03:57:46;;;;;;;47.70;32.67;;;;;;;6.74;84.79;95315.66;5006401;28;20039;-80
2021/04/20 04:00:17;;;;;;;55.65;34.22;;;;;;;6.47;86.30;95300.25;4991998;28;20715;-74
2021/04/20 04:02:46;;;;;;;53.95;34.25;;;;;;;6.67;86.24;95320.47;4991546;28;20046;-72
2021/04/20 04:05:17;;;;;;;52.22;33.10;;;;;;;6.24;87.69;95318.34;4991543;28;20033;-71
2021/04/20 04:07:44;;;;;;;51.58;32.95;;;;;;;6.18;88.70;95300.13;4992801;28;20018;-71
2021/04/20 04:10:11;;;;;;;59.65;35.05;;;;;;;6.43;89.04;95312.41;4990296;28;20042;-71
2021/04/20 04:12:41;;;;;;;55.72;35.88;;;;;;;6.44;87.94;95312.13;4991991;28;20062;-71
2021/04/20 04:15:10;;;;;;;58.33;35.25;;;;;;;6.46;88.01;95301.31;4990869;28;20108;-71
2021/04/20 04:17:38;;;;;;;61.80;37.10;;;;;;;6.94;85.97;95312.06;4991838;28;20034;-72
2021/04/20 04:20:05;;;;;;;52.03;34.78;;;;;;;6.99;85.27;95306.75;4993551;28;20042;-72
2021/04/20 04:22:36;;;;;;;58.05;35.63;;;;;;;6.91;85.92;95302.03;4991819;28;20381;-73
2021/04/20 04:25:04;;;;;;;57.72;35.25;;;;;;;6.46;86.65;95309.22;4992249;28;20238;-71
2021/04/20 04:27:34;;;;;;;55.30;35.92;;;;;;;6.96;85.33;95315.22;4991803;28;20027;-72
2021/04/20 04:30:06;;;;;;;55.30;35.72;;;;;;;6.66;86.12;95316.25;4992021;28;20117;-71
2021/04/20 04:32:33;;;;;;;56.13;36.25;;;;;;;6.87;85.94;95308.97;4991533;28;20031;-70
2021/04/20 04:35:02;;;;;;;57.00;35.80;;;;;;;7.06;84.99;95303.78;4993726;28;20102;-72
2021/04/20 04:37:28;;;;;;;55.20;35.83;;;;;;;7.47;83.67;95302.38;4991496;28;20517;-71
2021/04/20 04:39:56;;;;;;;57.47;37.67;;;;;;;7.86;82.33;95312.00;5006914;28;20054;-72
2021/04/20 04:42:22;;;;;;;53.58;35.58;;;;;;;7.95;81.45;95310.31;4991703;28;20519;-72
2021/04/20 04:44:48;;;;;;;53.65;34.85;;;;;;;7.40;81.86;95304.53;4991631;28;20117;-70
2021/04/20 04:47:14;;;;;;;56.90;35.58;;;;;;;7.29;82.51;95317.06;4991287;28;20736;-71
2021/04/20 04:49:39;;;;;;;59.47;35.97;;;;;;;7.53;81.98;95308.41;4993275;28;20107;-71
2021/04/20 04:52:05;;;;;;;52.15;34.08;;;;;;;7.36;81.89;95313.31;4991488;28;20046;-71
2021/04/20 04:54:31;;;;;;;52.83;36.65;;;;;;;7.11;83.28;95324.91;4991731;28;20058;-71
2021/04/20 04:56:58;;;;;;;53.85;34.95;;;;;;;6.75;85.35;95323.31;5005942;28;20185;-72
2021/04/20 04:59:25;;;;;;;52.42;34.67;;;;;;;6.64;85.38;95303.28;4991135;28;20022;-72
2021/04/20 05:01:51;;;;;;;54.92;36.88;;;;;;;7.12;83.78;95327.28;4992964;28;20042;-72
2021/04/20 05:04:21;;;;;;;56.42;35.78;;;;;;;6.95;84.33;95322.38;4991301;28;20034;-72
2021/04/20 05:06:48;;;;;;;52.72;36.00;;;;;;;7.42;83.55;95318.31;4991123;28;20050;-72
2021/04/20 05:09:15;;;;;;;56.70;37.22;;;;;;;7.66;81.72;95323.59;4991294;28;20029;-72
2021/04/20 05:11:42;;;;;;;53.08;35.67;;;;;;;7.54;81.19;95333.78;4990779;28;20046;-71
2021/04/20 05:14:09;;;;;;;57.50;36.25;;;;;;;7.68;81.32;95326.00;4991067;28;20419;-70
2021/04/20 05:16:35;;;;;;;65.95;39.90;;;;;;;7.66;81.89;95333.41;4991563;28;20034;-71
2021/04/20 05:19:05;;;;;;;55.42;34.67;;;;;;;7.62;80.96;95335.03;5005600;28;20088;-72
2021/04/20 05:21:30;;;;;;;54.70;35.10;;;;;;;7.59;81.59;95317.06;4990055;28;20133;-73
2021/04/20 05:23:56;;;;;;;51.38;35.55;;;;;;;7.95;80.84;95328.09;4990524;28;20054;-71
2021/04/20 05:26:25;;;;;;;56.22;37.25;;;;;;;8.04;79.94;95316.59;4990664;28;20030;-72
2021/04/20 05:28:50;;;;;;;48.45;33.35;;;;;;;8.14;78.36;95330.75;4991932;28;20106;-72
2021/04/20 05:31:15;;;;;;;54.13;34.03;;;;;;;7.96;79.58;95324.34;4990624;28;20123;-72
2021/04/20 05:33:41;;;;;;;49.33;33.75;;;;;;;8.38;78.79;95323.59;5005482;28;20054;-71
2021/04/20 05:36:07;;;;;;;47.92;32.20;;;;;;;8.57;77.22;95326.28;4990706;28;20053;-77
2021/04/20 05:38:33;;;;;;;44.38;31.45;;;;;;;8.41;76.77;95320.41;4990621;28;20054;-72
2021/04/20 05:40:58;;;;;;;45.83;32.60;;;;;;;8.69;76.78;95334.59;4992687;28;20106;-71
2021/04/20 05:43:23;;;;;;;43.60;31.20;;;;;;;8.51;76.98;95332.72;4990394;28;20428;-72
2021/04/20 05:45:49;;;;;;;40.63;30.42;;;;;;;8.22;78.01;95325.63;4990466;28;20038;-73
2021/04/20 05:48:14;;;;;;;42.67;30.88;;;;;;;8.11;77.88;95302.97;4990084;28;20057;-69
2021/04/20 05:50:41;;;;;;;41.47;30.58;;;;;;;8.31;77.02;95313.31;4990135;28;20366;-72
2021/04/20 05:53:11;;;;;;;40.78;30.38;;;;;;;8.29;77.27;95318.13;4992320;28;20113;-68
2021/04/20 05:55:37;;;;;;;41.90;29.10;;;;;;;8.63;77.97;95330.44;5005679;28;20125;-68
2021/04/20 05:58:03;;;;;;;46.55;31.73;;;;;;;9.10;75.59;95323.38;5005108;28;20745;-69
2021/04/20 06:00:28;;;;;;;39.17;29.35;;;;;;;9.36;74.17;95321.88;5006091;28;20046;-72
2021/04/20 06:02:56;;;;;;;37.00;27.77;;;;;;;9.28;73.64;95314.59;5005239;28;20047;-72
2021/04/20 06:05:24;;;;;;;36.47;28.75;;;;;;;9.30;73.29;95322.25;5005522;28;20061;-75
2021/04/20 06:07:53;;;;;;;34.20;27.20;;;;;;;9.26;73.10;95314.09;4992036;28;20029;-75
2021/04/20 06:10:19;;;;;;;33.60;26.73;;;;;;;9.21;73.79;95326.66;4990294;28;20555;-74
2021/04/20 06:12:46;;;;;;;32.22;25.65;;;;;;;8.73;74.49;95330.28;4987708;28;20038;-74
2021/04/20 06:15:15;;;;;;;34.63;27.58;;;;;;;8.61;76.34;95340.53;4970399;28;20045;-68
2021/04/20 06:17:40;;;;;;;39.72;29.27;;;;;;;9.11;74.89;95331.06;4970668;28;20501;-70
2021/04/20 06:20:10;;;;;;;36.40;28.23;;;;;;;8.78;75.35;95337.38;4985888;28;20118;-70
2021/04/20 06:22:36;;;;;;;34.78;28.63;;;;;;;9.08;74.52;95336.16;5001562;28;20058;-70
2021/04/20 06:25:02;;;;;;;33.05;26.20;;;;;;;9.15;73.79;95349.84;5001883;28;20046;-73
2021/04/20 06:27:29;;;;;;;35.60;28.17;;;;;;;8.93;74.21;95344.34;4993072;28;20042;-73
2021/04/20 06:29:54;;;;;;;36.80;27.20;;;;;;;9.21;74.29;95345.22;5005455;28;20034;-74
2021/04/20 06:32:20;;;;;;;32.58;26.73;;;;;;;9.07;72.93;95340.69;4990108;28;20527;-73
2021/04/20 06:34:46;;;;;;;36.42;26.08;;;;;;;9.02;74.17;95326.69;4992184;28;20033;-70
2021/04/20 06:37:12;;;;;;;35.30;27.63;;;;;;;8.83;73.59;95326.72;4988690;28;20065;-76
2021/04/20 06:39:38;;;;;;;33.67;27.10;;;;;;;9.15;74.09;95349.84;5006932;28;20500;-73
2021/04/20 06:42:10;;;;;;;39.10;28.75;;;;;;;8.71;74.80;95339.63;4993842;28;20047;-78
2021/04/20 06:44:47;;;;;;;45.30;28.40;;;;;;;8.47;76.02;95358.22;4994879;28;20400;-75
2021/04/20 06:47:39;;;;;;;37.97;27.67;;;;;;;7.71;79.80;95352.69;4993861;28;20038;-71
2021/04/20 06:50:08;;;;;;;37.08;28.35;;;;;;;8.25;77.77;95359.53;4995131;28;20057;-71
2021/04/20 06:53:14;;;;;;;38.97;28.13;;;;;;;8.24;77.66;95355.31;4994551;28;20400;-72
2021/04/20 06:56:01;;;;;;;36.10;27.13;;;;;;;8.83;76.37;95356.66;5009706;28;20489;-76
2021/04/20 06:58:45;;;;;;;37.60;28.20;;;;;;;9.16;75.31;95366.53;5008605;28;20035;-68
2021/04/20 07:01:16;;;;;;;33.90;27.08;;;;;;;8.19;77.13;95358.00;4993574;28;20397;-69
2021/04/20 07:04:07;;;;;;;38.38;28.92;;;;;;;8.96;76.01;95347.22;4993670;28;20039;-69
2021/04/20 07:06:41;;;;;;;40.42;28.27;;;;;;;8.81;74.41;95353.53;4993472;28;20046;-70
2021/04/20 07:09:15;;;;;;;35.35;28.05;;;;;;;9.59;73.31;95364.53;4993631;28;20480;-69
2021/04/20 07:11:45;;;;;;;33.60;26.65;;;;;;;9.43;72.56;95357.91;4993441;28;20050;-76
2021/04/20 07:14:15;;;;;;;38.88;27.98;;;;;;;8.92;74.39;95369.31;4993833;28;20365;-76
2021/04/20 07:16:49;;;;;;;38.05;26.70;;;;;;;9.34;73.06;95355.91;5011247;28;20057;-75
2021/04/20 07:19:28;;;;;;;33.75;25.40;;;;;;;9.49;72.09;95356.75;4993801;28;20184;-74
2021/04/20 07:22:18;;;;;;;30.95;25.48;;;;;;;10.07;70.17;95361.53;4993693;28;20488;-78
2021/04/20 07:24:52;;;;;;;31.83;24.85;;;;;;;10.82;69.75;95361.13;4993627;28;20047;-77
2021/04/20 07:27:53;;;;;;;28.38;23.80;;;;;;;10.62;67.85;95364.22;4993346;28;20034;-74
2021/04/20 07:30:24;;;;;;;28.38;23.23;;;;;;;11.14;66.46;95351.34;4989378;28;20039;-77
2021/04/20 07:33:18;;;;;;;28.17;23.73;;;;;;;11.44;64.68;95353.28;4993004;28;20081;-73
2021/04/20 07:36:05;;;;;;;25.95;23.27;;;;;;;12.00;62.58;95351.13;4993216;28;20404;-77
2021/04/20 07:38:48;;;;;;;26.77;23.23;;;;;;;12.33;61.31;95356.88;4992782;28;20049;-76
2021/04/20 07:41:51;;;;;;;23.92;20.95;;;;;;;12.62;60.65;95356.34;4993107;28;20026;-77
2021/04/20 07:44:31;;;;;;;24.50;21.20;;;;;;;12.87;60.74;95357.47;4989734;28;20161;-73
2021/04/20 07:46:58;;;;;;;23.98;21.08;;;;;;;13.24;59.35;95360.66;5009985;28;20467;-77
2021/04/20 07:49:32;;;;;;;24.13;21.67;;;;;;;13.59;58.68;95361.41;4993163;28;20030;-78
2021/04/20 07:52:28;;;;;;;24.15;21.63;;;;;;;13.90;57.56;95350.50;4992377;28;20092;-73
2021/04/20 07:55:19;;;;;;;23.48;20.92;;;;;;;14.12;57.08;95354.81;4992835;28;20039;-76
2021/04/20 07:57:54;;;;;;;22.60;20.38;;;;;;;14.21;55.92;95360.91;4992974;28;20070;-78
2021/04/20 08:00:36;;;;;;;23.75;21.17;;;;;;;14.12;55.42;95357.50;4992698;28;20066;-79
2021/04/20 08:03:07;;;;;;;22.58;20.00;;;;;;;14.21;56.14;95358.25;4992072;28;20042;-69
2021/04/20 08:05:39;;;;;;;19.20;17.20;;;;;;;14.30;56.46;95353.66;4992523;28;20421;-70
2021/04/20 08:08:12;;;;;;;22.90;20.50;;;;;;;14.00;54.20;95360.84;4994220;28;20269;-70
2021/04/20 08:10:58;;;;;;;24.52;21.17;;;;;;;13.67;55.03;95357.16;4992784;28;20034;-69
2021/04/20 08:13:52;;;;;;;18.15;16.35;;;;;;;14.04;56.36;95358.31;4992196;28;20112;-69
2021/04/20 08:16:37;;;;;;;25.25;20.48;;;;;;;14.48;55.93;95354.38;4989290;28;20436;-71
2021/04/20 08:19:09;;;;;;;24.45;21.92;;;;;;;14.99;53.74;95352.47;4991902;28;20054;-68
2021/04/20 08:21:37;;;;;;;23.33;20.90;;;;;;;14.97;51.26;95348.56;4991561;28;20082;-69
2021/04/20 08:24:06;;;;;;;20.75;18.60;;;;;;;15.22;51.68;95355.63;4992261;28;20043;-70
2021/04/20 08:26:37;;;;;;;21.15;19.02;;;;;;;15.31;51.05;95352.88;4992197;28;20031;-69
2021/04/20 08:29:08;;;;;;;23.35;20.50;;;;;;;15.26;50.18;95351.19;4992655;28;20056;-70
2021/04/20 08:31:45;;;;;;;20.38;18.27;;;;;;;15.44;51.76;95359.06;4991945;28;20043;-69
2021/04/20 08:34:35;;;;;;;19.98;17.90;;;;;;;15.31;51.13;95350.19;5007148;28;20412;-71
2021/04/20 08:37:01;;;;;;;23.17;20.63;;;;;;;14.63;51.46;95354.91;4991305;28;20153;-80
2021/04/20 08:39:48;;;;;;;23.85;20.33;;;;;;;15.01;51.12;95352.94;5007888;28;20129;-79
2021/04/20 08:42:25;;;;;;;21.92;19.65;;;;;;;14.56;51.79;95355.44;4992529;28;20125;-78
2021/04/20 08:45:03;;;;;;;21.63;19.38;;;;;;;14.68;50.89;95346.69;5007829;28;20038;-79
2021/04/20 08:47:36;;;;;;;21.25;19.17;;;;;;;14.34;52.06;95353.00;4992505;28;20050;-79
2021/04/20 08:50:09;;;;;;;20.98;18.77;;;;;;;12.88;55.20;95345.69;5009332;28;20038;-78
2021/04/20 08:52:43;;;;;;;21.02;18.88;;;;;;;12.72;56.09;95352.59;5007642;28;20042;-76
2021/04/20 08:55:19;;;;;;;21.23;18.77;;;;;;;12.11;59.26;95355.09;4992141;28;20038;-82
2021/04/20 08:58:07;;;;;;;19.90;18.05;;;;;;;12.22;58.69;95347.59;5006986;28;20400;-79
2021/04/20 09:01:00;;;;;;;22.60;19.35;;;;;;;10.67;63.45;95318.88;4992415;28;20038;-80
2021/04/20 09:03:31;;;;;;;20.40;18.40;;;;;;;12.81;60.11;95356.06;4991593;28;20031;-81
2021/04/20 09:05:58;;;;;;;20.17;18.20;;;;;;;14.16;56.92;95352.28;4992464;28;20045;-80
2021/04/20 09:08:46;;;;;;;19.75;17.80;;;;;;;15.31;53.60;95353.66;4992013;28;20113;-78
2021/04/20 09:11:23;;;;;;;20.90;18.75;;;;;;;16.02;51.63;95344.63;4992011;28;20034;-80
2021/04/20 09:14:07;;;;;;;19.05;17.25;;;;;;;16.51;47.73;95347.34;4994314;28;20354;-79
2021/04/20 09:17:04;;;;;;;19.92;18.02;;;;;;;15.48;48.89;95346.56;4992249;28;20056;-79
2021/04/20 09:19:48;;;;;;;18.90;17.10;;;;;;;15.99;49.08;95349.88;5006974;28;20038;-78
2021/04/20 09:22:24;;;;;;;18.38;16.58;;;;;;;16.54;47.83;95335.94;4991714;28;20567;-77
2021/04/20 09:25:08;;;;;;;18.17;16.50;;;;;;;17.16;46.55;95342.00;4991806;28;20416;-79
2021/04/20 09:27:48;;;;;;;18.30;16.63;;;;;;;17.10;45.71;95341.47;4991740;28;20042;-79
2021/04/20 09:30:16;;;;;;;20.60;18.45;;;;;;;15.86;46.54;95343.69;5006541;28;20492;-79
2021/04/20 09:32:52;;;;;;;20.30;18.45;;;;;;;15.11;48.56;95332.25;4991089;28;20053;-79
2021/04/20 09:35:18;;;;;;;20.52;17.60;;;;;;;15.21;48.75;95339.88;4991257;28;20105;-78
2021/04/20 09:37:45;;;;;;;19.90;17.85;;;;;;;16.11;47.21;95341.84;4993301;28;20113;-79
2021/04/20 09:40:16;;;;;;;18.35;16.65;;;;;;;16.64;47.87;95338.16;5006525;28;20092;-78
2021/04/20 09:42:48;;;;;;;19.90;18.20;;;;;;;17.33;45.24;95339.03;4991697;28;20042;-81
2021/04/20 09:45:19;;;;;;;17.98;16.48;;;;;;;17.95;45.15;95344.94;4991643;28;20037;-78
2021/04/20 09:47:56;;;;;;;18.73;16.95;;;;;;;18.27;43.08;95340.38;5006488;28;20041;-78
2021/04/20 09:50:39;;;;;;;18.30;16.60;;;;;;;18.60;43.00;95339.97;4991311;28;20053;-79
2021/04/20 09:53:32;;;;;;;17.88;16.35;;;;;;;18.82;42.75;95340.50;4993458;28;20030;-79
2021/04/20 09:56:06;;;;;;;17.67;16.10;;;;;;;18.88;41.38;95337.16;4992053;28;20042;-80
2021/04/20 09:58:34;;;;;;;18.85;17.15;;;;;;;19.04;41.28;95334.44;4991502;28;20039;-78
2021/04/20 10:01:07;;;;;;;18.33;16.75;;;;;;;19.12;40.85;95333.44;4991283;28;20658;-78
2021/04/20 10:04:05;;;;;;;17.95;16.23;;;;;;;19.29;41.04;95336.84;4990894;28;20122;-79
2021/04/20 10:06:55;;;;;;;17.70;16.10;;;;;;;19.50;40.30;95342.69;4990886;28;20062;-79
2021/04/20 10:09:32;;;;;;;17.13;15.63;;;;;;;19.23;41.38;95329.03;4991177;28;20069;-78
2021/04/20 10:12:28;;;;;;;16.70;15.10;;;;;;;19.57;40.26;95340.13;4990977;28;20038;-78
2021/04/20 10:15:10;;;;;;;24.63;17.02;;;;;;;19.60;39.15;95339.44;5005980;28;20042;-79
2021/04/20 10:17:52;;;;;;;18.02;16.42;;;;;;;19.72;39.40;95333.13;4990727;28;20069;-78
2021/04/20 10:20:27;;;;;;;17.33;15.90;;;;;;;19.92;39.33;95331.16;5006077;28;20022;-79
2021/04/20 10:23:03;;;;;;;16.67;15.25;;;;;;;19.99;38.79;95333.97;4992636;28;20101;-78
2021/04/20 10:25:49;;;;;;;16.48;15.07;;;;;;;19.90;38.71;95328.81;4990576;28;20042;-79
2021/04/20 10:28:26;;;;;;;16.60;15.20;;;;;;;19.92;38.18;95320.38;5002644;28;20711;-80
2021/04/20 10:30:56;;;;;;;17.05;15.57;;;;;;;19.73;37.91;95321.19;4991387;28;20048;-79
2021/04/20 10:33:24;;;;;;;17.45;15.70;;;;;;;19.90;39.61;95328.81;4991472;28;20038;-85
2021/04/20 10:35:59;;;;;;;17.30;15.80;;;;;;;20.02;37.22;95324.41;4991339;28;20066;-77
2021/04/20 10:38:30;;;;;;;16.75;15.23;;;;;;;19.86;37.00;95322.59;4990968;28;20034;-77
2021/04/20 10:40:56;;;;;;;16.52;15.13;;;;;;;19.76;38.19;95311.56;5007442;28;20046;-76
2021/04/20 10:43:24;;;;;;;16.35;15.02;;;;;;;19.31;39.39;95305.72;4989927;28;20073;-76
2021/04/20 10:45:50;;;;;;;17.15;15.75;;;;;;;19.63;39.80;95313.66;4990269;28;20049;-78
2021/04/20 10:48:27;;;;;;;15.70;14.40;;;;;;;19.95;39.80;95306.91;4989761;28;20425;-77
2021/04/20 10:50:54;;;;;;;15.70;14.48;;;;;;;20.11;39.29;95304.09;4989328;28;20038;-75
2021/04/20 10:53:28;;;;;;;16.92;15.43;;;;;;;20.28;38.23;95310.16;4990094;28;20449;-78
2021/04/20 10:56:01;;;;;;;15.02;13.73;;;;;;;20.35;38.32;95302.94;4992139;28;20038;-79
2021/04/20 10:58:29;;;;;;;16.45;15.13;;;;;;;20.63;37.19;95307.25;4990021;28;20039;-77
2021/04/20 11:00:55;;;;;;;15.35;13.85;;;;;;;20.57;37.95;95292.47;5025910;23;20050;-61
2021/04/20 11:03:31;;;;;;;15.27;13.98;;;;;;;20.71;37.79;95303.50;5009113;28;20084;-60
2021/04/20 11:05:56;;;;;;;14.93;13.68;;;;;;;19.16;36.94;95293.09;5009595;28;20030;-61
2021/04/20 11:08:24;;;;;;;14.77;13.65;;;;;;;19.45;38.00;95280.94;5009113;28;20072;-62
2021/04/20 11:10:49;;;;;;;15.30;13.73;;;;;;;19.82;38.17;95286.66;5011221;28;20384;-61
2021/04/20 11:13:15;;;;;;;15.15;13.65;;;;;;;20.09;37.30;95306.38;5009010;28;20038;-61
2021/04/20 11:15:41;;;;;;;15.40;14.00;;;;;;;20.11;36.34;95287.88;5009090;28;20038;-61
2021/04/20 11:18:10;;;;;;;14.80;13.38;;;;;;;19.60;37.72;95296.25;5008874;28;20033;-61
2021/04/20 11:20:45;;;;;;;14.70;13.30;;;;;;;19.76;38.54;95285.38;5023842;28;20046;-59
2021/04/20 11:23:18;;;;;;;22.00;14.35;;;;;;;20.04;38.30;95274.28;5008873;28;20021;-61
2021/04/20 11:25:53;;;;;;;15.48;13.70;;;;;;;20.54;37.49;95307.50;5012196;28;20030;-60
2021/04/20 11:28:36;;;;;;;15.10;13.55;;;;;;;17.81;40.05;95306.88;5012342;28;20050;-60
2021/04/20 11:31:04;;;;;;;15.05;13.60;;;;;;;18.69;40.66;95308.28;5012638;28;20038;-60
2021/04/20 11:33:54;;;;;;;14.45;13.02;;;;;;;19.21;39.78;95298.97;5011057;28;20041;-60
2021/04/20 11:36:23;;;;;;;14.15;12.95;;;;;;;19.42;39.36;95304.00;5027613;28;20040;-60
2021/04/20 11:38:56;;;;;;;13.98;12.63;;;;;;;18.94;39.14;95211.00;5012244;28;20030;-62
2021/04/20 11:41:28;;;;;;;12.95;11.88;;;;;;;19.48;38.64;95294.47;5012301;28;20026;-60